sensor_id;sensor_type;location;lat;lon;timestamp;pressure;altitude;pressure_sealevel;temperature;humidity
75536;BME280;64119;52.070;20.804;2024-02-14T00:01:14;100927.48;;;4.59;89.38
75536;BME280;64119;52.070;20.804;2024-02-14T00:03:42;100929.66;;;4.58;89.40
75536;BME280;64119;52.070;20.804;2024-02-14T00:06:09;100928.11;;;4.58;89.44
75536;BME280;64119;52.070;20.804;2024-02-14T00:08:39;100936.83;;;4.57;89.55
75536;BME280;64119;52.070;20.804;2024-02-14T00:11:08;100941.09;;;4.56;90.01
75536;BME280;64119;52.070;20.804;2024-02-14T00:13:35;100944.42;;;4.56;89.24
75536;BME280;64119;52.070;20.804;2024-02-14T00:16:04;100944.98;;;4.56;89.83
75536;BME280;64119;52.070;20.804;2024-02-14T00:18:34;100951.44;;;4.56;89.14
75536;BME280;64119;52.070;20.804;2024-02-14T00:21:02;100948.24;;;4.56;89.34
75536;BME280;64119;52.070;20.804;2024-02-14T00:23:30;100947.80;;;4.55;89.43
75536;BME280;64119;52.070;20.804;2024-02-14T00:25:58;100949.56;;;4.55;89.47
75536;BME280;64119;52.070;20.804;2024-02-14T00:28:26;100950.52;;;4.56;89.30
75536;BME280;64119;52.070;20.804;2024-02-14T00:30:55;100952.71;;;4.55;89.80
75536;BME280;64119;52.070;20.804;2024-02-14T00:33:23;100953.64;;;4.53;89.81
75536;BME280;64119;52.070;20.804;2024-02-14T00:35:51;100952.75;;;4.53;89.48
75536;BME280;64119;52.070;20.804;2024-02-14T00:38:19;100956.92;;;4.53;89.51
75536;BME280;64119;52.070;20.804;2024-02-14T00:40:47;100958.76;;;4.52;89.46
75536;BME280;64119;52.070;20.804;2024-02-14T00:43:14;100954.85;;;4.51;89.30
75536;BME280;64119;52.070;20.804;2024-02-14T00:45:42;100960.75;;;4.54;89.49
75536;BME280;64119;52.070;20.804;2024-02-14T00:48:10;100959.95;;;4.53;89.63
75536;BME280;64119;52.070;20.804;2024-02-14T00:50:38;100958.52;;;4.51;90.05
75536;BME280;64119;52.070;20.804;2024-02-14T00:53:06;100964.11;;;4.49;90.69
75536;BME280;64119;52.070;20.804;2024-02-14T00:55:34;100962.92;;;4.49;89.98
75536;BME280;64119;52.070;20.804;2024-02-14T00:58:01;100961.52;;;4.49;89.74
75536;BME280;64119;52.070;20.804;2024-02-14T01:00:30;100960.23;;;4.50;89.54
75536;BME280;64119;52.070;20.804;2024-02-14T01:03:03;100962.54;;;4.49;89.99
75536;BME280;64119;52.070;20.804;2024-02-14T01:05:31;100963.55;;;4.48;89.61
75536;BME280;64119;52.070;20.804;2024-02-14T01:07:59;100968.84;;;4.48;89.67
75536;BME280;64119;52.070;20.804;2024-02-14T01:10:27;100963.11;;;4.47;89.76
75536;BME280;64119;52.070;20.804;2024-02-14T01:12:55;100961.96;;;4.46;89.88
75536;BME280;64119;52.070;20.804;2024-02-14T01:15:24;100965.76;;;4.45;89.85
75536;BME280;64119;52.070;20.804;2024-02-14T01:17:52;100966.38;;;4.42;89.88
75536;BME280;64119;52.070;20.804;2024-02-14T01:20:20;100968.33;;;4.35;89.96
75536;BME280;64119;52.070;20.804;2024-02-14T01:22:48;100970.60;;;4.28;89.99
75536;BME280;64119;52.070;20.804;2024-02-14T01:25:15;100970.73;;;4.22;90.27
75536;BME280;64119;52.070;20.804;2024-02-14T01:27:43;100971.41;;;4.16;90.09
75536;BME280;64119;52.070;20.804;2024-02-14T01:30:11;100971.36;;;4.09;89.72
75536;BME280;64119;52.070;20.804;2024-02-14T01:32:39;100972.22;;;4.01;89.74
75536;BME280;64119;52.070;20.804;2024-02-14T01:35:08;100974.45;;;3.93;89.80
75536;BME280;64119;52.070;20.804;2024-02-14T01:37:37;100972.32;;;3.84;89.72
75536;BME280;64119;52.070;20.804;2024-02-14T01:40:06;100972.02;;;3.75;89.72
75536;BME280;64119;52.070;20.804;2024-02-14T01:42:35;100971.16;;;3.67;89.81
75536;BME280;64119;52.070;20.804;2024-02-14T01:45:03;100973.44;;;3.58;89.85
75536;BME280;64119;52.070;20.804;2024-02-14T01:47:32;100977.27;;;3.51;89.61
75536;BME280;64119;52.070;20.804;2024-02-14T01:50:00;100974.77;;;3.41;89.58
75536;BME280;64119;52.070;20.804;2024-02-14T01:52:29;100978.99;;;3.32;89.74
75536;BME280;64119;52.070;20.804;2024-02-14T01:54:56;100978.92;;;3.22;89.90
75536;BME280;64119;52.070;20.804;2024-02-14T01:57:25;100984.38;;;3.14;89.71
75536;BME280;64119;52.070;20.804;2024-02-14T01:59:53;100988.23;;;3.05;89.59
75536;BME280;64119;52.070;20.804;2024-02-14T02:02:22;100985.13;;;2.96;89.96
75536;BME280;64119;52.070;20.804;2024-02-14T02:04:50;100983.89;;;2.86;89.54
75536;BME280;64119;52.070;20.804;2024-02-14T02:07:19;100984.88;;;2.76;89.49
75536;BME280;64119;52.070;20.804;2024-02-14T02:09:47;100988.50;;;2.67;89.78
75536;BME280;64119;52.070;20.804;2024-02-14T02:12:15;100985.71;;;2.56;90.17
75536;BME280;64119;52.070;20.804;2024-02-14T02:14:43;100987.08;;;2.48;90.19
75536;BME280;64119;52.070;20.804;2024-02-14T02:17:11;100989.25;;;2.40;90.19
75536;BME280;64119;52.070;20.804;2024-02-14T02:19:40;100985.33;;;2.33;90.10
75536;BME280;64119;52.070;20.804;2024-02-14T02:22:08;100985.98;;;2.25;89.99
75536;BME280;64119;52.070;20.804;2024-02-14T02:24:35;100988.10;;;2.14;90.46
75536;BME280;64119;52.070;20.804;2024-02-14T02:27:04;100988.91;;;2.05;90.64
75536;BME280;64119;52.070;20.804;2024-02-14T02:29:32;100986.09;;;1.97;91.13
75536;BME280;64119;52.070;20.804;2024-02-14T02:32:00;100987.00;;;1.90;91.19
75536;BME280;64119;52.070;20.804;2024-02-14T02:34:28;100988.71;;;1.83;90.65
75536;BME280;64119;52.070;20.804;2024-02-14T02:36:56;100986.65;;;1.76;90.81
75536;BME280;64119;52.070;20.804;2024-02-14T02:39:24;100990.19;;;1.69;90.66
75536;BME280;64119;52.070;20.804;2024-02-14T02:41:52;100990.21;;;1.62;90.80
75536;BME280;64119;52.070;20.804;2024-02-14T02:44:20;100991.52;;;1.54;90.91
75536;BME280;64119;52.070;20.804;2024-02-14T02:46:47;100990.63;;;1.43;90.98
75536;BME280;64119;52.070;20.804;2024-02-14T02:49:16;100996.52;;;1.36;91.51
75536;BME280;64119;52.070;20.804;2024-02-14T02:51:44;100998.11;;;1.28;91.47
75536;BME280;64119;52.070;20.804;2024-02-14T02:54:11;101000.41;;;1.21;91.84
75536;BME280;64119;52.070;20.804;2024-02-14T02:56:39;101001.67;;;1.16;92.02
75536;BME280;64119;52.070;20.804;2024-02-14T02:59:08;101006.61;;;1.10;92.04
75536;BME280;64119;52.070;20.804;2024-02-14T03:01:36;101010.63;;;1.06;92.11
75536;BME280;64119;52.070;20.804;2024-02-14T03:04:04;101006.19;;;1.00;92.23
75536;BME280;64119;52.070;20.804;2024-02-14T03:06:32;101011.29;;;0.94;91.98
75536;BME280;64119;52.070;20.804;2024-02-14T03:09:00;101014.80;;;0.89;92.25
75536;BME280;64119;52.070;20.804;2024-02-14T03:11:28;101016.36;;;0.84;91.64
75536;BME280;64119;52.070;20.804;2024-02-14T03:13:56;101021.70;;;0.80;91.78
75536;BME280;64119;52.070;20.804;2024-02-14T03:16:24;101023.19;;;0.74;92.09
75536;BME280;64119;52.070;20.804;2024-02-14T03:18:52;101025.02;;;0.69;92.20
75536;BME280;64119;52.070;20.804;2024-02-14T03:21:21;101025.80;;;0.64;93.41
75536;BME280;64119;52.070;20.804;2024-02-14T03:23:50;101028.80;;;0.59;93.30
75536;BME280;64119;52.070;20.804;2024-02-14T03:26:18;101029.91;;;0.53;93.08
75536;BME280;64119;52.070;20.804;2024-02-14T03:28:46;101034.41;;;0.49;92.87
75536;BME280;64119;52.070;20.804;2024-02-14T03:31:13;101040.62;;;0.45;92.60
75536;BME280;64119;52.070;20.804;2024-02-14T03:33:43;101037.48;;;0.43;93.36
75536;BME280;64119;52.070;20.804;2024-02-14T03:36:12;101038.79;;;0.44;94.42
75536;BME280;64119;52.070;20.804;2024-02-14T03:38:40;101038.22;;;0.44;95.50
75536;BME280;64119;52.070;20.804;2024-02-14T03:41:09;101037.49;;;0.45;95.40
75536;BME280;64119;52.070;20.804;2024-02-14T03:43:36;101038.04;;;0.42;94.39
75536;BME280;64119;52.070;20.804;2024-02-14T03:46:04;101038.21;;;0.40;94.07
75536;BME280;64119;52.070;20.804;2024-02-14T03:48:33;101036.52;;;0.36;94.30
75536;BME280;64119;52.070;20.804;2024-02-14T03:51:02;101035.09;;;0.34;94.40
75536;BME280;64119;52.070;20.804;2024-02-14T03:53:31;101033.85;;;0.32;94.17
75536;BME280;64119;52.070;20.804;2024-02-14T03:56:00;101032.64;;;0.30;94.18
75536;BME280;64119;52.070;20.804;2024-02-14T03:58:28;101031.25;;;0.27;94.16
75536;BME280;64119;52.070;20.804;2024-02-14T04:00:57;101027.05;;;0.25;94.30
75536;BME280;64119;52.070;20.804;2024-02-14T04:03:24;101028.52;;;0.22;93.94
75536;BME280;64119;52.070;20.804;2024-02-14T04:05:52;101031.16;;;0.19;93.89
75536;BME280;64119;52.070;20.804;2024-02-14T04:08:20;101034.33;;;0.16;93.73
75536;BME280;64119;52.070;20.804;2024-02-14T04:10:49;101039.52;;;0.14;93.75
75536;BME280;64119;52.070;20.804;2024-02-14T04:13:18;101043.98;;;0.12;93.90
75536;BME280;64119;52.070;20.804;2024-02-14T04:15:45;101048.79;;;0.11;94.26
75536;BME280;64119;52.070;20.804;2024-02-14T04:18:14;101046.55;;;0.08;94.57
75536;BME280;64119;52.070;20.804;2024-02-14T04:20:46;101049.65;;;0.05;94.74
75536;BME280;64119;52.070;20.804;2024-02-14T04:23:14;101049.09;;;0.04;94.93
75536;BME280;64119;52.070;20.804;2024-02-14T04:25:42;101048.77;;;0.01;94.72
75536;BME280;64119;52.070;20.804;2024-02-14T04:28:10;101052.57;;;-0.02;94.55
75536;BME280;64119;52.070;20.804;2024-02-14T04:30:39;101056.96;;;-0.05;94.45
75536;BME280;64119;52.070;20.804;2024-02-14T04:33:09;101058.92;;;-0.08;94.71
75536;BME280;64119;52.070;20.804;2024-02-14T04:35:41;101058.48;;;-0.12;94.73
75536;BME280;64119;52.070;20.804;2024-02-14T04:38:09;101062.16;;;-0.15;94.51
75536;BME280;64119;52.070;20.804;2024-02-14T04:40:36;101063.79;;;-0.19;94.19
75536;BME280;64119;52.070;20.804;2024-02-14T04:43:05;101060.47;;;-0.23;94.31
75536;BME280;64119;52.070;20.804;2024-02-14T04:45:33;101062.45;;;-0.27;94.69
75536;BME280;64119;52.070;20.804;2024-02-14T04:48:02;101064.23;;;-0.30;94.46
75536;BME280;64119;52.070;20.804;2024-02-14T04:50:31;101068.86;;;-0.34;93.76
75536;BME280;64119;52.070;20.804;2024-02-14T04:52:59;101069.02;;;-0.37;93.40
75536;BME280;64119;52.070;20.804;2024-02-14T04:55:27;101074.22;;;-0.39;93.72
75536;BME280;64119;52.070;20.804;2024-02-14T04:57:56;101076.83;;;-0.42;94.29
75536;BME280;64119;52.070;20.804;2024-02-14T05:00:24;101077.30;;;-0.46;96.52
75536;BME280;64119;52.070;20.804;2024-02-14T05:02:53;101074.87;;;-0.49;96.03
75536;BME280;64119;52.070;20.804;2024-02-14T05:05:21;101075.84;;;-0.50;95.63
75536;BME280;64119;52.070;20.804;2024-02-14T05:07:49;101077.63;;;-0.51;95.17
75536;BME280;64119;52.070;20.804;2024-02-14T05:10:17;101078.73;;;-0.52;94.76
75536;BME280;64119;52.070;20.804;2024-02-14T05:12:44;101083.77;;;-0.52;95.24
75536;BME280;64119;52.070;20.804;2024-02-14T05:15:12;101083.85;;;-0.53;94.68
75536;BME280;64119;52.070;20.804;2024-02-14T05:17:42;101082.92;;;-0.55;94.89
75536;BME280;64119;52.070;20.804;2024-02-14T05:20:11;101081.13;;;-0.56;95.10
75536;BME280;64119;52.070;20.804;2024-02-14T05:22:38;101081.39;;;-0.58;95.58
75536;BME280;64119;52.070;20.804;2024-02-14T05:25:07;101084.06;;;-0.59;97.07
75536;BME280;64119;52.070;20.804;2024-02-14T05:27:38;101084.08;;;-0.59;96.59
75536;BME280;64119;52.070;20.804;2024-02-14T05:30:06;101088.60;;;-0.59;95.66
75536;BME280;64119;52.070;20.804;2024-02-14T05:32:35;101090.68;;;-0.59;96.23
75536;BME280;64119;52.070;20.804;2024-02-14T05:35:03;101093.11;;;-0.59;96.32
75536;BME280;64119;52.070;20.804;2024-02-14T05:37:34;101093.30;;;-0.59;96.27
75536;BME280;64119;52.070;20.804;2024-02-14T05:40:06;101096.63;;;-0.60;96.43
75536;BME280;64119;52.070;20.804;2024-02-14T05:42:34;101096.04;;;-0.61;96.22
75536;BME280;64119;52.070;20.804;2024-02-14T05:45:02;101097.41;;;-0.61;96.11
75536;BME280;64119;52.070;20.804;2024-02-14T05:47:31;101100.83;;;-0.63;96.06
75536;BME280;64119;52.070;20.804;2024-02-14T05:49:59;101102.83;;;-0.64;96.13
75536;BME280;64119;52.070;20.804;2024-02-14T05:52:27;101100.08;;;-0.68;95.99
75536;BME280;64119;52.070;20.804;2024-02-14T05:54:55;101098.36;;;-0.71;95.90
75536;BME280;64119;52.070;20.804;2024-02-14T05:57:23;101100.84;;;-0.71;95.57
75536;BME280;64119;52.070;20.804;2024-02-14T05:59:51;101102.83;;;-0.73;95.86
75536;BME280;64119;52.070;20.804;2024-02-14T06:02:19;101101.33;;;-0.73;95.81
75536;BME280;64119;52.070;20.804;2024-02-14T06:04:47;101107.60;;;-0.74;96.08
75536;BME280;64119;52.070;20.804;2024-02-14T06:07:14;101109.33;;;-0.74;96.23
75536;BME280;64119;52.070;20.804;2024-02-14T06:09:42;101114.55;;;-0.74;96.32
75536;BME280;64119;52.070;20.804;2024-02-14T06:12:10;101115.54;;;-0.73;96.23
75536;BME280;64119;52.070;20.804;2024-02-14T06:14:38;101120.20;;;-0.73;96.17
75536;BME280;64119;52.070;20.804;2024-02-14T06:17:06;101121.73;;;-0.72;96.24
75536;BME280;64119;52.070;20.804;2024-02-14T06:19:33;101121.69;;;-0.71;96.12
75536;BME280;64119;52.070;20.804;2024-02-14T06:22:07;101121.97;;;-0.70;96.36
75536;BME280;64119;52.070;20.804;2024-02-14T06:24:35;101124.84;;;-0.69;96.31
75536;BME280;64119;52.070;20.804;2024-02-14T06:27:03;101126.65;;;-0.68;96.19
75536;BME280;64119;52.070;20.804;2024-02-14T06:29:31;101128.45;;;-0.66;96.49
75536;BME280;64119;52.070;20.804;2024-02-14T06:31:58;101128.67;;;-0.64;96.23
75536;BME280;64119;52.070;20.804;2024-02-14T06:34:26;101125.89;;;-0.64;96.08
75536;BME280;64119;52.070;20.804;2024-02-14T06:36:56;101126.64;;;-0.59;95.95
75536;BME280;64119;52.070;20.804;2024-02-14T06:39:24;101128.80;;;-0.58;96.03
75536;BME280;64119;52.070;20.804;2024-02-14T06:41:51;101125.36;;;-0.55;95.69
75536;BME280;64119;52.070;20.804;2024-02-14T06:44:19;101130.25;;;-0.53;95.66
75536;BME280;64119;52.070;20.804;2024-02-14T06:46:47;101132.66;;;-0.50;96.50
75536;BME280;64119;52.070;20.804;2024-02-14T06:49:16;101127.55;;;-0.47;96.73
75536;BME280;64119;52.070;20.804;2024-02-14T06:51:45;101131.52;;;-0.41;96.68
75536;BME280;64119;52.070;20.804;2024-02-14T06:54:12;101129.77;;;-0.35;96.81
75536;BME280;64119;52.070;20.804;2024-02-14T06:56:40;101132.74;;;-0.28;97.84
75536;BME280;64119;52.070;20.804;2024-02-14T06:59:08;101133.19;;;-0.19;98.47
75536;BME280;64119;52.070;20.804;2024-02-14T07:01:36;101131.27;;;-0.09;98.89
75536;BME280;64119;52.070;20.804;2024-02-14T07:04:04;101133.02;;;0.04;98.17
75536;BME280;64119;52.070;20.804;2024-02-14T07:06:32;101134.72;;;0.20;99.05
75536;BME280;64119;52.070;20.804;2024-02-14T07:09:00;101132.36;;;0.39;98.93
75536;BME280;64119;52.070;20.804;2024-02-14T07:11:28;101131.27;;;0.62;99.02
75536;BME280;64119;52.070;20.804;2024-02-14T07:13:56;101126.38;;;0.87;98.26
75536;BME280;64119;52.070;20.804;2024-02-14T07:16:24;101124.25;;;1.14;98.34
75536;BME280;64119;52.070;20.804;2024-02-14T07:18:52;101127.31;;;1.46;97.34
75536;BME280;64119;52.070;20.804;2024-02-14T07:21:19;101130.20;;;1.80;96.93
75536;BME280;64119;52.070;20.804;2024-02-14T07:23:47;101128.39;;;2.13;96.83
75536;BME280;64119;52.070;20.804;2024-02-14T07:26:15;101130.67;;;2.47;96.35
75536;BME280;64119;52.070;20.804;2024-02-14T07:28:43;101130.13;;;2.83;96.53
75536;BME280;64119;52.070;20.804;2024-02-14T07:31:11;101130.78;;;3.18;96.23
75536;BME280;64119;52.070;20.804;2024-02-14T07:33:39;101127.92;;;3.54;95.65
75536;BME280;64119;52.070;20.804;2024-02-14T07:36:07;101128.70;;;3.84;95.85
75536;BME280;64119;52.070;20.804;2024-02-14T07:38:36;101132.73;;;4.13;95.40
75536;BME280;64119;52.070;20.804;2024-02-14T07:41:04;101139.45;;;4.41;94.59
75536;BME280;64119;52.070;20.804;2024-02-14T07:43:32;101129.10;;;4.70;95.00
75536;BME280;64119;52.070;20.804;2024-02-14T07:46:00;101134.09;;;4.94;94.14
75536;BME280;64119;52.070;20.804;2024-02-14T07:48:27;101131.14;;;5.18;93.76
75536;BME280;64119;52.070;20.804;2024-02-14T07:50:55;101129.95;;;5.43;92.98
75536;BME280;64119;52.070;20.804;2024-02-14T07:53:23;101129.83;;;5.70;91.94
75536;BME280;64119;52.070;20.804;2024-02-14T07:55:51;101130.08;;;5.94;92.10
75536;BME280;64119;52.070;20.804;2024-02-14T07:58:20;101131.94;;;6.17;90.06
75536;BME280;64119;52.070;20.804;2024-02-14T08:00:48;101129.90;;;6.39;88.83
75536;BME280;64119;52.070;20.804;2024-02-14T08:03:16;101129.13;;;6.64;89.63
75536;BME280;64119;52.070;20.804;2024-02-14T08:05:44;101126.84;;;6.93;89.11
75536;BME280;64119;52.070;20.804;2024-02-14T08:08:12;101121.94;;;7.25;88.08
75536;BME280;64119;52.070;20.804;2024-02-14T08:10:40;101126.95;;;7.58;87.18
75536;BME280;64119;52.070;20.804;2024-02-14T08:13:08;101124.09;;;7.90;87.02
75536;BME280;64119;52.070;20.804;2024-02-14T08:15:35;101124.95;;;8.31;85.54
75536;BME280;64119;52.070;20.804;2024-02-14T08:18:05;101118.76;;;8.77;82.53
75536;BME280;64119;52.070;20.804;2024-02-14T08:20:37;101119.34;;;9.16;83.57
75536;BME280;64119;52.070;20.804;2024-02-14T08:23:05;101118.20;;;9.51;82.54
75536;BME280;64119;52.070;20.804;2024-02-14T08:25:32;101115.59;;;9.76;78.11
75536;BME280;64119;52.070;20.804;2024-02-14T08:28:00;101113.55;;;10.06;80.10
75536;BME280;64119;52.070;20.804;2024-02-14T08:30:28;101112.89;;;10.47;73.38
75536;BME280;64119;52.070;20.804;2024-02-14T08:32:56;101110.02;;;10.73;75.55
75536;BME280;64119;52.070;20.804;2024-02-14T08:35:24;101110.20;;;11.08;77.97
75536;BME280;64119;52.070;20.804;2024-02-14T08:37:52;101113.48;;;11.37;74.13
75536;BME280;64119;52.070;20.804;2024-02-14T08:40:21;101112.58;;;11.72;75.77
75536;BME280;64119;52.070;20.804;2024-02-14T08:42:49;101109.48;;;11.90;73.35
75536;BME280;64119;52.070;20.804;2024-02-14T08:45:17;101114.80;;;12.06;73.05
75536;BME280;64119;52.070;20.804;2024-02-14T08:47:44;101112.12;;;12.17;70.32
75536;BME280;64119;52.070;20.804;2024-02-14T08:50:12;101118.37;;;12.20;68.35
75536;BME280;64119;52.070;20.804;2024-02-14T08:52:41;101118.23;;;12.18;68.37
75536;BME280;64119;52.070;20.804;2024-02-14T08:55:09;101118.02;;;12.21;68.12
75536;BME280;64119;52.070;20.804;2024-02-14T08:57:42;101115.02;;;12.15;65.41
75536;BME280;64119;52.070;20.804;2024-02-14T09:00:11;101114.89;;;12.15;67.14
75536;BME280;64119;52.070;20.804;2024-02-14T09:02:42;101117.67;;;12.22;66.55
75536;BME280;64119;52.070;20.804;2024-02-14T09:05:10;101118.88;;;12.42;64.14
75536;BME280;64119;52.070;20.804;2024-02-14T09:07:38;101114.52;;;12.62;65.31
75536;BME280;64119;52.070;20.804;2024-02-14T09:10:06;101113.20;;;12.76;64.42
75536;BME280;64119;52.070;20.804;2024-02-14T09:12:34;101112.36;;;12.84;63.48
75536;BME280;64119;52.070;20.804;2024-02-14T09:15:02;101108.71;;;12.72;61.36
75536;BME280;64119;52.070;20.804;2024-02-14T09:17:32;101109.82;;;12.57;60.90
75536;BME280;64119;52.070;20.804;2024-02-14T09:20:01;101110.80;;;12.60;62.13
75536;BME280;64119;52.070;20.804;2024-02-14T09:22:29;101103.95;;;12.73;61.54
75536;BME280;64119;52.070;20.804;2024-02-14T09:24:57;101107.02;;;12.81;59.82
75536;BME280;64119;52.070;20.804;2024-02-14T09:27:25;101107.52;;;12.94;59.27
75536;BME280;64119;52.070;20.804;2024-02-14T09:29:53;101106.70;;;13.01;59.14
75536;BME280;64119;52.070;20.804;2024-02-14T09:32:21;101103.59;;;13.10;59.62
75536;BME280;64119;52.070;20.804;2024-02-14T09:34:49;101098.09;;;13.37;58.75
75536;BME280;64119;52.070;20.804;2024-02-14T09:37:17;101097.74;;;13.51;59.58
75536;BME280;64119;52.070;20.804;2024-02-14T09:39:45;101097.08;;;13.50;57.31
75536;BME280;64119;52.070;20.804;2024-02-14T09:42:16;101097.63;;;13.43;56.25
75536;BME280;64119;52.070;20.804;2024-02-14T09:44:48;101099.31;;;13.51;54.38
75536;BME280;64119;52.070;20.804;2024-02-14T09:47:21;101104.45;;;13.78;56.03
75536;BME280;64119;52.070;20.804;2024-02-14T09:49:51;101101.36;;;13.71;53.22
75536;BME280;64119;52.070;20.804;2024-02-14T09:52:20;101100.03;;;13.75;54.26
75536;BME280;64119;52.070;20.804;2024-02-14T09:54:51;101094.04;;;13.95;54.48
75536;BME280;64119;52.070;20.804;2024-02-14T09:57:20;101097.44;;;14.09;54.17
75536;BME280;64119;52.070;20.804;2024-02-14T09:59:49;101093.54;;;14.16;52.64
75536;BME280;64119;52.070;20.804;2024-02-14T10:02:19;101098.86;;;14.32;52.25
75536;BME280;64119;52.070;20.804;2024-02-14T10:04:47;101098.47;;;14.44;52.02
75536;BME280;64119;52.070;20.804;2024-02-14T10:07:15;101098.81;;;14.47;53.71
75536;BME280;64119;52.070;20.804;2024-02-14T10:09:43;101097.14;;;14.28;51.24
75536;BME280;64119;52.070;20.804;2024-02-14T10:12:11;101091.92;;;14.08;52.16
75536;BME280;64119;52.070;20.804;2024-02-14T10:14:39;101094.45;;;14.21;51.94
75536;BME280;64119;52.070;20.804;2024-02-14T10:17:08;101096.28;;;14.32;51.52
75536;BME280;64119;52.070;20.804;2024-02-14T10:19:37;101093.23;;;14.43;50.64
75536;BME280;64119;52.070;20.804;2024-02-14T10:22:05;101095.68;;;14.53;49.87
75536;BME280;64119;52.070;20.804;2024-02-14T10:24:33;101091.83;;;14.67;49.59
75536;BME280;64119;52.070;20.804;2024-02-14T10:27:01;101086.63;;;14.73;49.76
75536;BME280;64119;52.070;20.804;2024-02-14T10:29:29;101087.70;;;14.82;48.86
75536;BME280;64119;52.070;20.804;2024-02-14T10:31:57;101086.48;;;14.91;49.22
75536;BME280;64119;52.070;20.804;2024-02-14T10:34:26;101086.79;;;14.82;47.65
75536;BME280;64119;52.070;20.804;2024-02-14T10:36:56;101084.08;;;14.77;47.11
75536;BME280;64119;52.070;20.804;2024-02-14T10:39:25;101077.65;;;14.68;47.04
75536;BME280;64119;52.070;20.804;2024-02-14T10:41:54;101075.32;;;14.48;47.15
75536;BME280;64119;52.070;20.804;2024-02-14T10:44:22;101075.02;;;14.32;46.86
75536;BME280;64119;52.070;20.804;2024-02-14T10:46:52;101071.13;;;14.20;46.90
75536;BME280;64119;52.070;20.804;2024-02-14T10:49:20;101069.84;;;14.09;46.70
75536;BME280;64119;52.070;20.804;2024-02-14T10:51:52;101064.11;;;13.75;47.55
75536;BME280;64119;52.070;20.804;2024-02-14T10:54:22;101064.46;;;13.78;46.83
75536;BME280;64119;52.070;20.804;2024-02-14T10:56:53;101058.77;;;13.54;47.67
75536;BME280;64119;52.070;20.804;2024-02-14T10:59:22;101061.43;;;13.53;47.88
75536;BME280;64119;52.070;20.804;2024-02-14T11:01:52;101057.59;;;13.58;47.60
75536;BME280;64119;52.070;20.804;2024-02-14T11:04:20;101054.09;;;13.75;47.12
75536;BME280;64119;52.070;20.804;2024-02-14T11:06:52;101048.30;;;13.74;45.73
75536;BME280;64119;52.070;20.804;2024-02-14T11:09:21;101048.39;;;13.70;46.67
75536;BME280;64119;52.070;20.804;2024-02-14T11:12:00;101046.63;;;13.72;47.28
75536;BME280;64119;52.070;20.804;2024-02-14T11:14:32;101047.48;;;13.94;46.55
75536;BME280;64119;52.070;20.804;2024-02-14T11:17:01;101049.53;;;13.93;46.60
75536;BME280;64119;52.070;20.804;2024-02-14T11:19:30;101047.58;;;14.12;46.16
75536;BME280;64119;52.070;20.804;2024-02-14T11:22:17;101041.17;;;14.33;44.71
75536;BME280;64119;52.070;20.804;2024-02-14T11:24:46;101041.41;;;14.46;45.90
75536;BME280;64119;52.070;20.804;2024-02-14T11:27:17;101040.17;;;14.60;45.20
75536;BME280;64119;52.070;20.804;2024-02-14T11:30:01;101038.64;;;14.64;44.35
75536;BME280;64119;52.070;20.804;2024-02-14T11:32:31;101038.67;;;14.62;42.54
75536;BME280;64119;52.070;20.804;2024-02-14T11:34:59;101040.17;;;14.85;44.59
75536;BME280;64119;52.070;20.804;2024-02-14T11:37:28;101035.26;;;15.12;44.15
75536;BME280;64119;52.070;20.804;2024-02-14T11:40:00;101034.08;;;15.40;42.81
75536;BME280;64119;52.070;20.804;2024-02-14T11:42:28;101031.13;;;15.54;41.21
75536;BME280;64119;52.070;20.804;2024-02-14T11:44:56;101032.31;;;15.40;41.53
75536;BME280;64119;52.070;20.804;2024-02-14T11:47:24;101029.90;;;15.32;42.23
75536;BME280;64119;52.070;20.804;2024-02-14T11:49:52;101029.79;;;15.29;42.69
75536;BME280;64119;52.070;20.804;2024-02-14T11:52:20;101026.29;;;15.26;41.96
75536;BME280;64119;52.070;20.804;2024-02-14T11:54:48;101024.15;;;15.10;42.10
75536;BME280;64119;52.070;20.804;2024-02-14T11:57:17;101020.56;;;14.76;41.29
75536;BME280;64119;52.070;20.804;2024-02-14T11:59:48;101018.58;;;14.70;43.02
75536;BME280;64119;52.070;20.804;2024-02-14T12:02:18;101016.04;;;14.61;42.81
75536;BME280;64119;52.070;20.804;2024-02-14T12:04:48;101014.93;;;14.46;42.85
75536;BME280;64119;52.070;20.804;2024-02-14T12:07:18;101016.97;;;14.44;43.00
75536;BME280;64119;52.070;20.804;2024-02-14T12:09:46;101016.08;;;14.50;43.04
75536;BME280;64119;52.070;20.804;2024-02-14T12:12:15;101018.86;;;14.57;42.34
75536;BME280;64119;52.070;20.804;2024-02-14T12:14:43;101019.56;;;14.70;42.68
75536;BME280;64119;52.070;20.804;2024-02-14T12:17:13;101013.83;;;14.84;43.41
75536;BME280;64119;52.070;20.804;2024-02-14T12:19:41;101014.45;;;14.96;42.34
75536;BME280;64119;52.070;20.804;2024-02-14T12:22:10;101012.67;;;14.93;42.89
75536;BME280;64119;52.070;20.804;2024-02-14T12:24:46;101016.67;;;14.98;42.70
75536;BME280;64119;52.070;20.804;2024-02-14T12:27:19;101017.58;;;14.86;43.16
75536;BME280;64119;52.070;20.804;2024-02-14T12:29:47;101014.18;;;14.71;43.30
75536;BME280;64119;52.070;20.804;2024-02-14T12:32:16;101014.21;;;14.60;42.83
75536;BME280;64119;52.070;20.804;2024-02-14T12:34:45;101010.75;;;14.56;42.61
75536;BME280;64119;52.070;20.804;2024-02-14T12:37:13;101014.05;;;14.70;42.69
75536;BME280;64119;52.070;20.804;2024-02-14T12:39:41;101008.08;;;14.66;41.87
75536;BME280;64119;52.070;20.804;2024-02-14T12:42:09;101008.09;;;14.60;43.12
75536;BME280;64119;52.070;20.804;2024-02-14T12:44:38;101003.88;;;14.45;42.22
75536;BME280;64119;52.070;20.804;2024-02-14T12:47:06;101006.14;;;14.44;43.17
75536;BME280;64119;52.070;20.804;2024-02-14T12:49:35;101004.34;;;14.28;43.15
75536;BME280;64119;52.070;20.804;2024-02-14T12:52:03;101004.02;;;14.07;43.14